sensor_id;sensor_type;location;lat;lon;timestamp;pressure;altitude;pressure_sealevel;temperature;humidity
4598;BME280;62772;48.646;8.906;2023-04-22T00:04:51;95676.19;;;8.75;100.00
4598;BME280;62772;48.646;8.906;2023-04-22T00:09:51;95668.84;;;8.80;100.00
4598;BME280;62772;48.646;8.906;2023-04-22T00:14:52;95660.06;;;9.06;100.00
4598;BME280;62772;48.646;8.906;2023-04-22T00:19:52;95653.78;;;8.84;100.00
4598;BME280;62772;48.646;8.906;2023-04-22T00:24:54;95661.63;;;8.63;100.00
4598;BME280;62772;48.646;8.906;2023-04-22T00:29:54;95660.22;;;8.57;100.00
4598;BME280;62772;48.646;8.906;2023-04-22T00:34:55;95659.59;;;8.60;100.00
4598;BME280;62772;48.646;8.906;2023-04-22T00:39:56;95662.09;;;8.74;100.00
4598;BME280;62772;48.646;8.906;2023-04-22T00:44:57;95663.06;;;8.61;100.00
4598;BME280;62772;48.646;8.906;2023-04-22T00:49:59;95655.78;;;8.35;100.00
4598;BME280;62772;48.646;8.906;2023-04-22T00:54:59;95655.00;;;8.26;100.00
4598;BME280;62772;48.646;8.906;2023-04-22T01:00:00;95662.19;;;8.25;100.00
4598;BME280;62772;48.646;8.906;2023-04-22T01:05:01;95649.28;;;8.85;100.00
4598;BME280;62772;48.646;8.906;2023-04-22T01:10:03;95648.81;;;8.83;100.00
4598;BME280;62772;48.646;8.906;2023-04-22T01:15:05;95650.53;;;8.61;100.00
4598;BME280;62772;48.646;8.906;2023-04-22T01:20:06;95656.13;;;8.51;100.00
4598;BME280;62772;48.646;8.906;2023-04-22T01:25:10;95656.56;;;8.18;100.00
4598;BME280;62772;48.646;8.906;2023-04-22T01:30:11;95649.31;;;8.01;100.00
4598;BME280;62772;48.646;8.906;2023-04-22T01:35:13;95649.16;;;7.97;100.00
4598;BME280;62772;48.646;8.906;2023-04-22T01:40:15;95659.22;;;8.27;100.00
4598;BME280;62772;48.646;8.906;2023-04-22T01:45:18;95661.22;;;8.12;100.00
4598;BME280;62772;48.646;8.906;2023-04-22T01:50:20;95662.72;;;8.53;100.00
4598;BME280;62772;48.646;8.906;2023-04-22T01:55:21;95655.91;;;8.04;100.00
4598;BME280;62772;48.646;8.906;2023-04-22T02:00:21;95657.31;;;8.10;100.00
4598;BME280;62772;48.646;8.906;2023-04-22T02:05:22;95660.56;;;7.89;100.00
4598;BME280;62772;48.646;8.906;2023-04-22T02:10:22;95663.03;;;8.52;100.00
4598;BME280;62772;48.646;8.906;2023-04-22T02:15:23;95665.38;;;7.87;100.00
4598;BME280;62772;48.646;8.906;2023-04-22T02:20:27;95667.53;;;7.76;100.00
4598;BME280;62772;48.646;8.906;2023-04-22T02:25:28;95658.22;;;7.56;100.00
4598;BME280;62772;48.646;8.906;2023-04-22T02:30:29;95659.25;;;7.78;100.00
4598;BME280;62772;48.646;8.906;2023-04-22T02:35:29;95661.00;;;7.91;100.00
4598;BME280;62772;48.646;8.906;2023-04-22T02:40:30;95667.38;;;8.30;100.00
4598;BME280;62772;48.646;8.906;2023-04-22T02:45:30;95663.63;;;7.82;100.00
4598;BME280;62772;48.646;8.906;2023-04-22T02:50:31;95657.88;;;7.89;100.00
4598;BME280;62772;48.646;8.906;2023-04-22T02:55:32;95662.56;;;7.52;100.00
4598;BME280;62772;48.646;8.906;2023-04-22T03:00:32;95665.38;;;7.47;100.00
4598;BME280;62772;48.646;8.906;2023-04-22T03:05:33;95654.91;;;7.19;100.00
4598;BME280;62772;48.646;8.906;2023-04-22T03:10:34;95650.84;;;7.22;100.00
4598;BME280;62772;48.646;8.906;2023-04-22T03:15:35;95655.00;;;7.05;100.00
4598;BME280;62772;48.646;8.906;2023-04-22T03:20:37;95666.69;;;7.27;100.00
4598;BME280;62772;48.646;8.906;2023-04-22T03:25:37;95664.75;;;6.74;100.00
4598;BME280;62772;48.646;8.906;2023-04-22T03:30:39;95674.66;;;7.27;100.00
4598;BME280;62772;48.646;8.906;2023-04-22T03:35:39;95677.13;;;7.55;100.00
4598;BME280;62772;48.646;8.906;2023-04-22T03:40:41;95674.69;;;7.67;100.00
4598;BME280;62772;48.646;8.906;2023-04-22T03:45:52;95675.22;;;7.47;100.00
4598;BME280;62772;48.646;8.906;2023-04-22T03:50:57;95677.19;;;7.63;100.00
4598;BME280;62772;48.646;8.906;2023-04-22T03:56:00;95672.59;;;7.55;100.00
4598;BME280;62772;48.646;8.906;2023-04-22T04:01:01;95666.63;;;7.81;100.00
4598;BME280;62772;48.646;8.906;2023-04-22T04:06:01;95670.28;;;7.62;100.00
4598;BME280;62772;48.646;8.906;2023-04-22T04:11:03;95672.19;;;7.71;100.00
4598;BME280;62772;48.646;8.906;2023-04-22T04:16:04;95674.59;;;7.81;100.00
4598;BME280;62772;48.646;8.906;2023-04-22T04:21:06;95665.19;;;7.75;100.00
4598;BME280;62772;48.646;8.906;2023-04-22T04:26:11;95660.59;;;7.67;100.00
4598;BME280;62772;48.646;8.906;2023-04-22T04:31:15;95672.78;;;6.82;100.00
4598;BME280;62772;48.646;8.906;2023-04-22T04:36:16;95665.84;;;6.72;100.00
4598;BME280;62772;48.646;8.906;2023-04-22T04:41:17;95668.38;;;7.23;100.00
4598;BME280;62772;48.646;8.906;2023-04-22T04:46:21;95673.41;;;7.33;100.00
4598;BME280;62772;48.646;8.906;2023-04-22T04:51:23;95664.81;;;7.28;100.00
4598;BME280;62772;48.646;8.906;2023-04-22T04:56:28;95662.47;;;7.03;100.00
4598;BME280;62772;48.646;8.906;2023-04-22T05:01:30;95667.25;;;6.93;100.00
4598;BME280;62772;48.646;8.906;2023-04-22T05:06:36;95662.81;;;6.65;100.00
4598;BME280;62772;48.646;8.906;2023-04-22T05:11:38;95678.00;;;6.51;100.00
4598;BME280;62772;48.646;8.906;2023-04-22T05:16:45;95674.66;;;6.45;100.00
4598;BME280;62772;48.646;8.906;2023-04-22T05:21:47;95674.69;;;6.31;100.00
4598;BME280;62772;48.646;8.906;2023-04-22T05:26:48;95682.50;;;6.50;100.00
4598;BME280;62772;48.646;8.906;2023-04-22T05:31:52;95692.88;;;7.20;100.00
4598;BME280;62772;48.646;8.906;2023-04-22T05:36:53;95679.28;;;7.21;100.00
4598;BME280;62772;48.646;8.906;2023-04-22T05:41:54;95683.13;;;7.38;100.00
4598;BME280;62772;48.646;8.906;2023-04-22T05:46:56;95678.19;;;7.45;100.00
4598;BME280;62772;48.646;8.906;2023-04-22T05:51:59;95687.00;;;7.63;100.00
4598;BME280;62772;48.646;8.906;2023-04-22T05:57:07;95678.19;;;7.76;100.00
4598;BME280;62772;48.646;8.906;2023-04-22T06:02:08;95692.06;;;7.73;100.00
4598;BME280;62772;48.646;8.906;2023-04-22T06:07:08;95692.56;;;7.84;100.00
4598;BME280;62772;48.646;8.906;2023-04-22T06:12:09;95681.94;;;7.84;100.00
4598;BME280;62772;48.646;8.906;2023-04-22T06:17:10;95688.66;;;7.81;100.00
4598;BME280;62772;48.646;8.906;2023-04-22T06:22:11;95693.09;;;7.95;100.00
4598;BME280;62772;48.646;8.906;2023-04-22T06:27:11;95697.84;;;8.15;100.00
4598;BME280;62772;48.646;8.906;2023-04-22T06:32:12;95694.00;;;8.39;100.00
4598;BME280;62772;48.646;8.906;2023-04-22T06:37:12;95696.16;;;8.28;100.00
4598;BME280;62772;48.646;8.906;2023-04-22T06:42:13;95697.09;;;8.32;100.00
4598;BME280;62772;48.646;8.906;2023-04-22T06:47:32;95696.22;;;8.46;100.00
4598;BME280;62772;48.646;8.906;2023-04-22T06:52:38;95690.91;;;8.63;100.00
4598;BME280;62772;48.646;8.906;2023-04-22T06:57:39;95691.09;;;8.93;100.00
4598;BME280;62772;48.646;8.906;2023-04-22T07:02:40;95681.84;;;8.82;100.00
4598;BME280;62772;48.646;8.906;2023-04-22T07:07:41;95680.88;;;9.13;100.00
4598;BME280;62772;48.646;8.906;2023-04-22T07:12:46;95674.75;;;9.21;100.00
4598;BME280;62772;48.646;8.906;2023-04-22T07:17:47;95679.41;;;9.41;100.00
4598;BME280;62772;48.646;8.906;2023-04-22T07:22:47;95683.19;;;9.40;100.00
4598;BME280;62772;48.646;8.906;2023-04-22T07:27:48;95692.28;;;9.48;100.00
4598;BME280;62772;48.646;8.906;2023-04-22T07:32:48;95695.34;;;9.68;100.00
4598;BME280;62772;48.646;8.906;2023-04-22T07:37:49;95697.50;;;9.74;100.00
4598;BME280;62772;48.646;8.906;2023-04-22T07:42:49;95702.00;;;9.91;100.00
4598;BME280;62772;48.646;8.906;2023-04-22T07:47:50;95701.63;;;10.02;100.00
4598;BME280;62772;48.646;8.906;2023-04-22T07:52:51;95704.09;;;10.15;100.00
4598;BME280;62772;48.646;8.906;2023-04-22T07:57:51;95701.56;;;10.19;100.00
4598;BME280;62772;48.646;8.906;2023-04-22T08:02:52;95708.66;;;10.45;100.00
4598;BME280;62772;48.646;8.906;2023-04-22T08:07:52;95706.41;;;10.56;100.00
4598;BME280;62772;48.646;8.906;2023-04-22T08:12:53;95699.97;;;10.78;100.00
4598;BME280;62772;48.646;8.906;2023-04-22T08:17:53;95699.31;;;11.02;100.00
4598;BME280;62772;48.646;8.906;2023-04-22T08:22:53;95693.31;;;11.38;100.00
4598;BME280;62772;48.646;8.906;2023-04-22T08:27:59;95685.59;;;11.70;100.00
4598;BME280;62772;48.646;8.906;2023-04-22T08:32:59;95688.06;;;11.75;100.00
4598;BME280;62772;48.646;8.906;2023-04-22T08:38:00;95681.28;;;11.78;100.00
4598;BME280;62772;48.646;8.906;2023-04-22T08:43:01;95675.19;;;12.27;100.00
4598;BME280;62772;48.646;8.906;2023-04-22T08:48:02;95685.31;;;12.33;100.00
4598;BME280;62772;48.646;8.906;2023-04-22T08:53:03;95691.75;;;12.69;100.00
4598;BME280;62772;48.646;8.906;2023-04-22T08:58:04;95691.34;;;12.96;100.00
4598;BME280;62772;48.646;8.906;2023-04-22T09:03:05;95682.84;;;13.06;100.00
4598;BME280;62772;48.646;8.906;2023-04-22T09:08:06;95676.25;;;13.32;100.00
4598;BME280;62772;48.646;8.906;2023-04-22T09:13:08;95675.69;;;13.38;100.00
4598;BME280;62772;48.646;8.906;2023-04-22T09:18:09;95666.78;;;13.50;100.00
4598;BME280;62772;48.646;8.906;2023-04-22T09:23:11;95668.63;;;13.78;100.00
4598;BME280;62772;48.646;8.906;2023-04-22T09:28:16;95661.00;;;13.80;100.00
4598;BME280;62772;48.646;8.906;2023-04-22T09:33:17;95669.72;;;14.25;99.52
4598;BME280;62772;48.646;8.906;2023-04-22T09:38:19;95667.19;;;14.48;91.83
4598;BME280;62772;48.646;8.906;2023-04-22T09:43:20;95652.94;;;14.47;92.06
4598;BME280;62772;48.646;8.906;2023-04-22T09:48:20;95650.34;;;14.67;76.41
4598;BME280;62772;48.646;8.906;2023-04-22T09:53:21;95645.66;;;15.03;79.51
4598;BME280;62772;48.646;8.906;2023-04-22T09:58:21;95642.38;;;15.33;71.86
4598;BME280;62772;48.646;8.906;2023-04-22T10:03:26;95641.25;;;15.34;72.86
4598;BME280;62772;48.646;8.906;2023-04-22T10:08:27;95634.41;;;15.83;67.24
4598;BME280;62772;48.646;8.906;2023-04-22T10:13:28;95634.81;;;16.08;60.14
4598;BME280;62772;48.646;8.906;2023-04-22T10:18:30;95624.34;;;16.29;55.93
4598;BME280;62772;48.646;8.906;2023-04-22T10:23:32;95619.72;;;16.57;53.85
4598;BME280;62772;48.646;8.906;2023-04-22T10:28:33;95617.50;;;16.36;56.54
4598;BME280;62772;48.646;8.906;2023-04-22T10:33:34;95619.88;;;16.41;56.00
4598;BME280;62772;48.646;8.906;2023-04-22T10:38:37;95616.81;;;16.73;53.18
4598;BME280;62772;48.646;8.906;2023-04-22T10:43:45;95619.19;;;16.78;49.84
4598;BME280;62772;48.646;8.906;2023-04-22T10:48:47;95618.97;;;16.86;50.89
4598;BME280;62772;48.646;8.906;2023-04-22T10:53:48;95614.00;;;16.92;50.72
4598;BME280;62772;48.646;8.906;2023-04-22T10:58:48;95618.53;;;17.18;48.43
4598;BME280;62772;48.646;8.906;2023-04-22T11:03:50;95610.97;;;17.31;48.73
4598;BME280;62772;48.646;8.906;2023-04-22T11:09:07;95615.09;;;17.21;47.78
4598;BME280;62772;48.646;8.906;2023-04-22T11:14:09;95619.66;;;17.17;48.67
4598;BME280;62772;48.646;8.906;2023-04-22T11:19:09;95617.94;;;17.77;50.17
4598;BME280;62772;48.646;8.906;2023-04-22T11:24:10;95609.38;;;17.71;50.17
4598;BME280;62772;48.646;8.906;2023-04-22T11:29:10;95610.72;;;17.88;50.88
4598;BME280;62772;48.646;8.906;2023-04-22T11:34:11;95608.44;;;17.94;50.27
4598;BME280;62772;48.646;8.906;2023-04-22T11:39:13;95609.31;;;18.09;51.60
4598;BME280;62772;48.646;8.906;2023-04-22T11:44:15;95587.16;;;18.52;51.25
4598;BME280;62772;48.646;8.906;2023-04-22T11:49:16;95607.94;;;18.33;53.29
4598;BME280;62772;48.646;8.906;2023-04-22T11:54:28;95589.53;;;18.60;53.24
4598;BME280;62772;48.646;8.906;2023-04-22T11:59:29;95608.56;;;18.82;48.69
4598;BME280;62772;48.646;8.906;2023-04-22T12:04:35;95602.47;;;19.10;45.99
4598;BME280;62772;48.646;8.906;2023-04-22T12:09:35;95601.34;;;19.15;45.68
4598;BME280;62772;48.646;8.906;2023-04-22T12:14:36;95599.03;;;19.28;44.93
4598;BME280;62772;48.646;8.906;2023-04-22T12:19:36;95585.91;;;19.30;44.86
4598;BME280;62772;48.646;8.906;2023-04-22T12:24:43;95598.63;;;19.15;45.24
4598;BME280;62772;48.646;8.906;2023-04-22T12:29:53;95588.94;;;19.07;46.92
4598;BME280;62772;48.646;8.906;2023-04-22T12:34:54;95598.22;;;18.98;46.12
4598;BME280;62772;48.646;8.906;2023-04-22T12:39:55;95614.00;;;18.85;47.76
4598;BME280;62772;48.646;8.906;2023-04-22T12:44:55;95606.19;;;18.73;47.55
4598;BME280;62772;48.646;8.906;2023-04-22T12:49:56;95606.25;;;18.80;47.75
4598;BME280;62772;48.646;8.906;2023-04-22T12:54:59;95607.69;;;18.60;48.04
4598;BME280;62772;48.646;8.906;2023-04-22T13:00:00;95612.22;;;18.45;46.97
4598;BME280;62772;48.646;8.906;2023-04-22T13:05:00;95610.78;;;18.58;50.27
4598;BME280;62772;48.646;8.906;2023-04-22T13:10:01;95613.47;;;18.58;48.90
4598;BME280;62772;48.646;8.906;2023-04-22T13:15:03;95607.28;;;18.58;48.00
4598;BME280;62772;48.646;8.906;2023-04-22T13:20:04;95613.16;;;18.74;48.88
4598;BME280;62772;48.646;8.906;2023-04-22T13:25:07;95602.69;;;18.65;49.12
4598;BME280;62772;48.646;8.906;2023-04-22T13:30:08;95611.56;;;18.62;49.12
4598;BME280;62772;48.646;8.906;2023-04-22T13:35:09;95603.88;;;18.72;49.86
4598;BME280;62772;48.646;8.906;2023-04-22T13:40:09;95603.06;;;18.60;49.25
4598;BME280;62772;48.646;8.906;2023-04-22T13:45:10;95598.41;;;18.61;49.43
4598;BME280;62772;48.646;8.906;2023-04-22T13:50:10;95591.09;;;18.61;51.04
4598;BME280;62772;48.646;8.906;2023-04-22T13:55:11;95587.94;;;18.48;50.42
4598;BME280;62772;48.646;8.906;2023-04-22T14:00:12;95590.66;;;18.52;50.57
4598;BME280;62772;48.646;8.906;2023-04-22T14:05:12;95582.59;;;18.63;50.98
4598;BME280;62772;48.646;8.906;2023-04-22T14:10:13;95585.25;;;18.48;50.34
4598;BME280;62772;48.646;8.906;2023-04-22T14:15:13;95581.34;;;18.46;53.07
4598;BME280;62772;48.646;8.906;2023-04-22T14:20:14;95583.63;;;18.37;51.34
4598;BME280;62772;48.646;8.906;2023-04-22T14:25:14;95579.00;;;18.41;52.80
4598;BME280;62772;48.646;8.906;2023-04-22T14:30:15;95581.94;;;18.10;53.18
4598;BME280;62772;48.646;8.906;2023-04-22T14:35:16;95584.72;;;18.28;53.99
4598;BME280;62772;48.646;8.906;2023-04-22T14:40:17;95580.00;;;18.11;54.06
4598;BME280;62772;48.646;8.906;2023-04-22T14:45:21;95583.25;;;17.86;56.26
4598;BME280;62772;48.646;8.906;2023-04-22T14:50:22;95581.50;;;18.08;55.39
4598;BME280;62772;48.646;8.906;2023-04-22T14:55:22;95583.00;;;17.99;57.16
4598;BME280;62772;48.646;8.906;2023-04-22T15:00:26;95582.22;;;17.98;54.90
4598;BME280;62772;48.646;8.906;2023-04-22T15:05:27;95578.22;;;17.85;57.20
4598;BME280;62772;48.646;8.906;2023-04-22T15:10:27;95581.19;;;17.69;56.76
4598;BME280;62772;48.646;8.906;2023-04-22T15:15:28;95583.53;;;17.70;56.80
4598;BME280;62772;48.646;8.906;2023-04-22T15:20:28;95583.00;;;17.54;58.67
4598;BME280;62772;48.646;8.906;2023-04-22T15:25:29;95586.56;;;17.62;59.67
4598;BME280;62772;48.646;8.906;2023-04-22T15:30:29;95591.25;;;17.72;56.92
4598;BME280;62772;48.646;8.906;2023-04-22T15:35:30;95582.63;;;17.55;59.77
4598;BME280;62772;48.646;8.906;2023-04-22T15:40:31;95582.22;;;17.98;57.09
4598;BME280;62772;48.646;8.906;2023-04-22T15:45:33;95587.66;;;18.05;58.48
4598;BME280;62772;48.646;8.906;2023-04-22T15:50:34;95597.03;;;18.15;58.30
4598;BME280;62772;48.646;8.906;2023-04-22T15:55:34;95592.31;;;18.05;60.08
4598;BME280;62772;48.646;8.906;2023-04-22T16:00:35;95588.41;;;18.02;58.90
4598;BME280;62772;48.646;8.906;2023-04-22T16:05:36;95595.72;;;17.94;56.63
4598;BME280;62772;48.646;8.906;2023-04-22T16:10:36;95595.53;;;17.76;54.78
4598;BME280;62772;48.646;8.906;2023-04-22T16:15:37;95593.16;;;17.68;55.09
4598;BME280;62772;48.646;8.906;2023-04-22T16:20:38;95594.69;;;17.69;55.24
4598;BME280;62772;48.646;8.906;2023-04-22T16:25:38;95589.63;;;17.60;56.45
4598;BME280;62772;48.646;8.906;2023-04-22T16:30:39;95590.72;;;17.52;57.19
4598;BME280;62772;48.646;8.906;2023-04-22T16:35:39;95589.00;;;17.33;57.91
4598;BME280;62772;48.646;8.906;2023-04-22T16:40:40;95593.66;;;17.36;58.47
4598;BME280;62772;48.646;8.906;2023-04-22T16:45:40;95597.09;;;17.33;59.39
4598;BME280;62772;48.646;8.906;2023-04-22T16:50:41;95589.03;;;17.36;58.89
4598;BME280;62772;48.646;8.906;2023-04-22T16:55:41;95594.81;;;17.38;60.57
4598;BME280;62772;48.646;8.906;2023-04-22T17:00:42;95591.31;;;17.31;60.72
4598;BME280;62772;48.646;8.906;2023-04-22T17:05:43;95597.31;;;17.17;61.06
4598;BME280;62772;48.646;8.906;2023-04-22T17:10:43;95597.06;;;16.95;63.70
4598;BME280;62772;48.646;8.906;2023-04-22T17:15:44;95612.34;;;16.84;64.71
4598;BME280;62772;48.646;8.906;2023-04-22T17:20:45;95607.19;;;16.72;66.73
4598;BME280;62772;48.646;8.906;2023-04-22T17:25:46;95622.38;;;16.26;82.73
4598;BME280;62772;48.646;8.906;2023-04-22T17:30:46;95636.09;;;16.18;88.66
4598;BME280;62772;48.646;8.906;2023-04-22T17:35:47;95647.59;;;15.88;93.99
4598;BME280;62772;48.646;8.906;2023-04-22T17:40:48;95649.06;;;15.62;94.68
4598;BME280;62772;48.646;8.906;2023-04-22T17:45:49;95657.75;;;14.93;100.00
4598;BME280;62772;48.646;8.906;2023-04-22T17:50:49;95667.09;;;14.99;100.00
4598;BME280;62772;48.646;8.906;2023-04-22T17:55:50;95662.38;;;14.73;100.00
4598;BME280;62772;48.646;8.906;2023-04-22T18:00:50;95671.56;;;14.21;100.00
4598;BME280;62772;48.646;8.906;2023-04-22T18:05:51;95679.63;;;14.21;100.00
4598;BME280;62772;48.646;8.906;2023-04-22T18:10:52;95693.22;;;14.12;100.00
4598;BME280;62772;48.646;8.906;2023-04-22T18:15:53;95693.81;;;14.05;100.00
4598;BME280;62772;48.646;8.906;2023-04-22T18:20:53;95708.19;;;14.29;100.00
4598;BME280;62772;48.646;8.906;2023-04-22T18:25:54;95708.28;;;14.17;100.00
4598;BME280;62772;48.646;8.906;2023-04-22T18:30:55;95708.88;;;14.42;100.00
4598;BME280;62772;48.646;8.906;2023-04-22T18:35:56;95712.53;;;14.02;100.00
4598;BME280;62772;48.646;8.906;2023-04-22T18:40:59;95736.50;;;14.26;100.00
4598;BME280;62772;48.646;8.906;2023-04-22T18:46:00;95722.59;;;14.05;100.00
4598;BME280;62772;48.646;8.906;2023-04-22T18:51:00;95724.19;;;13.77;100.00
4598;BME280;62772;48.646;8.906;2023-04-22T18:56:02;95718.28;;;13.56;100.00
4598;BME280;62772;48.646;8.906;2023-04-22T19:01:02;95729.00;;;13.28;100.00
4598;BME280;62772;48.646;8.906;2023-04-22T19:06:05;95720.66;;;13.89;100.00
4598;BME280;62772;48.646;8.906;2023-04-22T19:11:06;95733.09;;;13.66;100.00
4598;BME280;62772;48.646;8.906;2023-04-22T19:16:07;95731.56;;;13.96;100.00
4598;BME280;62772;48.646;8.906;2023-04-22T19:21:08;95729.59;;;14.41;100.00
4598;BME280;62772;48.646;8.906;2023-04-22T19:26:08;95729.31;;;14.46;100.00
4598;BME280;62772;48.646;8.906;2023-04-22T19:31:09;95728.31;;;14.03;100.00
4598;BME280;62772;48.646;8.906;2023-04-22T19:36:09;95728.09;;;13.96;100.00
4598;BME280;62772;48.646;8.906;2023-04-22T19:41:10;95712.78;;;14.12;100.00
4598;BME280;62772;48.646;8.906;2023-04-22T19:46:11;95724.91;;;14.38;100.00
4598;BME280;62772;48.646;8.906;2023-04-22T19:51:11;95725.84;;;13.82;100.00
4598;BME280;62772;48.646;8.906;2023-04-22T19:56:13;95713.03;;;14.07;100.00
4598;BME280;62772;48.646;8.906;2023-04-22T20:01:14;95694.41;;;13.51;100.00
4598;BME280;62772;48.646;8.906;2023-04-22T20:06:15;95680.81;;;13.75;100.00
4598;BME280;62772;48.646;8.906;2023-04-22T20:11:16;95686.16;;;13.43;100.00
4598;BME280;62772;48.646;8.906;2023-04-22T20:16:17;95675.50;;;13.47;100.00
4598;BME280;62772;48.646;8.906;2023-04-22T20:21:18;95678.31;;;13.51;100.00
4598;BME280;62772;48.646;8.906;2023-04-22T20:26:19;95677.53;;;13.66;100.00
4598;BME280;62772;48.646;8.906;2023-04-22T20:31:20;95687.88;;;13.52;100.00
4598;BME280;62772;48.646;8.906;2023-04-22T20:36:22;95683.16;;;13.61;100.00
4598;BME280;62772;48.646;8.906;2023-04-22T20:41:25;95687.38;;;13.46;100.00
4598;BME280;62772;48.646;8.906;2023-04-22T20:46:26;95689.44;;;12.96;100.00
4598;BME280;62772;48.646;8.906;2023-04-22T20:51:27;95691.53;;;12.62;100.00
4598;BME280;62772;48.646;8.906;2023-04-22T20:56:28;95674.91;;;12.97;100.00
4598;BME280;62772;48.646;8.906;2023-04-22T21:01:28;95689.44;;;12.56;100.00
4598;BME280;62772;48.646;8.906;2023-04-22T21:06:30;95688.44;;;12.60;100.00
4598;BME280;62772;48.646;8.906;2023-04-22T21:11:33;95693.59;;;12.28;100.00
4598;BME280;62772;48.646;8.906;2023-04-22T21:16:37;95696.44;;;11.86;100.00
4598;BME280;62772;48.646;8.906;2023-04-22T21:21:39;95690.22;;;11.94;100.00
4598;BME280;62772;48.646;8.906;2023-04-22T21:26:40;95693.81;;;11.98;100.00
4598;BME280;62772;48.646;8.906;2023-04-22T21:31:41;95694.59;;;12.11;100.00
4598;BME280;62772;48.646;8.906;2023-04-22T21:36:42;95700.56;;;11.84;100.00
4598;BME280;62772;48.646;8.906;2023-04-22T21:41:42;95695.94;;;12.18;100.00
4598;BME280;62772;48.646;8.906;2023-04-22T21:46:43;95697.59;;;12.34;100.00
4598;BME280;62772;48.646;8.906;2023-04-22T21:51:45;95693.34;;;12.21;100.00
4598;BME280;62772;48.646;8.906;2023-04-22T21:56:45;95702.78;;;11.82;100.00
4598;BME280;62772;48.646;8.906;2023-04-22T22:01:46;95696.91;;;12.01;100.00
4598;BME280;62772;48.646;8.906;2023-04-22T22:06:46;95696.47;;;11.53;100.00
4598;BME280;62772;48.646;8.906;2023-04-22T22:11:48;95697.50;;;11.60;100.00
4598;BME280;62772;48.646;8.906;2023-04-22T22:16:48;95701.69;;;11.37;100.00
4598;BME280;62772;48.646;8.906;2023-04-22T22:21:52;95701.75;;;11.61;100.00
4598;BME280;62772;48.646;8.906;2023-04-22T22:26:53;95695.47;;;12.03;100.00
4598;BME280;62772;48.646;8.906;2023-04-22T22:31:53;95687.31;;;11.87;100.00
4598;BME280;62772;48.646;8.906;2023-04-22T22:36:54;95685.56;;;11.46;100.00
4598;BME280;62772;48.646;8.906;2023-04-22T22:41:54;95689.63;;;11.76;100.00
4598;BME280;62772;48.646;8.906;2023-04-22T22:46:57;95689.34;;;12.03;100.00
4598;BME280;62772;48.646;8.906;2023-04-22T22:51:58;95682.31;;;11.40;100.00
4598;BME280;62772;48.646;8.906;2023-04-22T22:57:00;95687.00;;;11.43;100.00
4598;BME280;62772;48.646;8.906;2023-04-22T23:02:01;95680.56;;;11.23;100.00
4598;BME280;62772;48.646;8.906;2023-04-22T23:07:02;95688.19;;;10.79;100.00
4598;BME280;62772;48.646;8.906;2023-04-22T23:12:02;95683.06;;;11.07;100.00
4598;BME280;62772;48.646;8.906;2023-04-22T23:17:03;95675.75;;;11.16;100.00
4598;BME280;62772;48.646;8.906;2023-04-22T23:22:04;95674.06;;;11.33;100.00
4598;BME280;62772;48.646;8.906;2023-04-22T23:27:06;95671.50;;;11.36;100.00
4598;BME280;62772;48.646;8.906;2023-04-22T23:32:06;95668.09;;;11.60;100.00
4598;BME280;62772;48.646;8.906;2023-04-22T23:37:09;95666.53;;;11.47;100.00
4598;BME280;62772;48.646;8.906;2023-04-22T23:42:11;95675.91;;;11.53;100.00
4598;BME280;62772;48.646;8.906;2023-04-22T23:47:11;95666.06;;;11.57;100.00
4598;BME280;62772;48.646;8.906;2023-04-22T23:52:12;95673.22;;;11.66;100.00
4598;BME280;62772;48.646;8.906;2023-04-22T23:57:14;95667.28;;;11.48;100.00
